Time;durP1;ratioP1;P1;durP2;ratioP2;P2;SDS_P1;SDS_P2;PMS_P1;PMS_P2;Temp;Humidity;BMP_temperature;BMP_pressure;BME280_temperature;BME280_humidity;BME280_pressure;Samples;Min_cycle;Max_cycle;Signal;HPM_P1;HPM_P2
2023/01/23 00:02:15;;;;;;;55.75;21.40;;;;;;;;;;6185110;23;20457;-89
2023/01/23 00:04:40;;;;;;;59.03;21.77;;;;;;;;;;6187247;23;20005;-87
2023/01/23 00:07:07;;;;;;;54.80;20.15;;;;;;;;;;6198201;23;20044;-88
2023/01/23 00:09:32;;;;;;;51.30;20.75;;;;;;;;;;6187678;23;20005;-88
2023/01/23 00:11:58;;;;;;;52.08;20.35;;;;;;;;;;6188702;23;20009;-87
2023/01/23 00:14:24;;;;;;;55.50;20.20;;;;;;;;;;6196314;23;20005;-88
2023/01/23 00:16:50;;;;;;;53.67;20.55;;;;;;;;;;6198404;23;20002;-86
2023/01/23 00:19:15;;;;;;;55.45;21.95;;;;;;;;;;6167571;23;20009;-87
2023/01/23 00:21:41;;;;;;;56.38;21.63;;;;;;;;;;6193335;23;20409;-86
2023/01/23 00:24:08;;;;;;;65.78;22.60;;;;;;;;;;6187829;23;20009;-87
2023/01/23 00:26:33;;;;;;;64.35;22.88;;;;;;;;;;6190626;23;20334;-87
2023/01/23 00:28:58;;;;;;;60.28;23.08;;;;;;;;;;6187094;23;20035;-88
2023/01/23 00:31:27;;;;;;;61.92;21.02;;;;;;;;;;6187532;23;20496;-85
2023/01/23 00:33:57;;;;;;;64.25;22.35;;;;;;;;;;6186944;23;20005;-89
2023/01/23 00:36:23;;;;;;;57.97;20.98;;;;;;;;;;6164677;23;20008;-88
2023/01/23 00:38:48;;;;;;;56.60;21.45;;;;;;;;;;6186500;23;20013;-89
2023/01/23 00:41:14;;;;;;;57.47;21.17;;;;;;;;;;6186126;23;20009;-87
2023/01/23 00:43:39;;;;;;;55.95;20.42;;;;;;;;;;6187833;23;20008;-88
2023/01/23 00:46:05;;;;;;;59.20;22.25;;;;;;;;;;6202431;23;20009;-86
2023/01/23 00:48:30;;;;;;;52.15;21.17;;;;;;;;;;6197174;23;20059;-87
2023/01/23 00:50:57;;;;;;;59.08;22.15;;;;;;;;;;6196101;23;20077;-84
2023/01/23 00:53:23;;;;;;;47.70;19.83;;;;;;;;;;6203763;23;20006;-86
2023/01/23 00:55:48;;;;;;;47.10;19.55;;;;;;;;;;6186207;23;20028;-87
2023/01/23 00:58:14;;;;;;;48.53;19.65;;;;;;;;;;6186697;23;20332;-86
2023/01/23 01:00:39;;;;;;;52.60;20.33;;;;;;;;;;6186447;23;20009;-87
2023/01/23 01:03:05;;;;;;;52.63;21.48;;;;;;;;;;6193333;23;20005;-86
2023/01/23 01:05:31;;;;;;;54.60;23.13;;;;;;;;;;6201317;23;20012;-86
2023/01/23 01:07:56;;;;;;;44.58;19.33;;;;;;;;;;6189890;23;20001;-88
2023/01/23 01:10:22;;;;;;;48.15;20.08;;;;;;;;;;6191854;23;20040;-87
2023/01/23 01:12:48;;;;;;;46.33;18.95;;;;;;;;;;6190787;23;20001;-87
2023/01/23 01:15:13;;;;;;;49.35;18.98;;;;;;;;;;6161014;23;20009;-87
2023/01/23 01:17:38;;;;;;;50.45;20.10;;;;;;;;;;6187735;23;20420;-86
2023/01/23 01:20:05;;;;;;;45.13;17.85;;;;;;;;;;6184791;23;20072;-85
2023/01/23 01:22:30;;;;;;;39.55;17.73;;;;;;;;;;6162592;23;20009;-87
2023/01/23 01:24:56;;;;;;;42.50;17.52;;;;;;;;;;6201860;23;20032;-85
2023/01/23 01:27:22;;;;;;;40.67;18.73;;;;;;;;;;6188184;23;20013;-87
2023/01/23 01:29:47;;;;;;;40.30;18.17;;;;;;;;;;6187643;23;20317;-88
2023/01/23 01:32:13;;;;;;;44.92;18.02;;;;;;;;;;6185545;23;20009;-87
2023/01/23 01:34:38;;;;;;;45.65;18.10;;;;;;;;;;6186758;23;20421;-88
2023/01/23 01:37:04;;;;;;;44.67;18.48;;;;;;;;;;6186552;23;20150;-86
2023/01/23 01:39:29;;;;;;;46.67;18.27;;;;;;;;;;6187049;23;20054;-85
2023/01/23 01:41:54;;;;;;;41.92;18.95;;;;;;;;;;6184801;23;20013;-86
2023/01/23 01:44:21;;;;;;;46.95;18.80;;;;;;;;;;6198614;23;20036;-86
2023/01/23 01:46:47;;;;;;;41.95;17.73;;;;;;;;;;6188411;23;20012;-88
2023/01/23 01:49:25;;;;;;;45.58;19.40;;;;;;;;;;6186709;23;20005;-89
2023/01/23 01:52:19;;;;;;;46.08;18.67;;;;;;;;;;6160509;23;20016;-87
2023/01/23 01:55:06;;;;;;;46.20;19.42;;;;;;;;;;6159689;23;20009;-88
2023/01/23 01:57:35;;;;;;;48.13;21.38;;;;;;;;;;6186465;23;20008;-87
2023/01/23 02:00:15;;;;;;;47.88;19.70;;;;;;;;;;6159721;23;20023;-86
2023/01/23 02:02:42;;;;;;;51.17;21.17;;;;;;;;;;6191744;23;20004;-87
2023/01/23 02:05:13;;;;;;;60.85;21.20;;;;;;;;;;6188438;23;20032;-87
2023/01/23 02:07:54;;;;;;;46.88;20.58;;;;;;;;;;6160079;23;20015;-85
2023/01/23 02:10:20;;;;;;;53.72;21.73;;;;;;;;;;6185911;23;20025;-88
2023/01/23 02:12:46;;;;;;;51.83;22.45;;;;;;;;;;6186950;23;20005;-88
2023/01/23 02:15:12;;;;;;;59.28;22.80;;;;;;;;;;6185582;23;20080;-86
2023/01/23 02:17:37;;;;;;;69.93;24.05;;;;;;;;;;6137857;23;20452;-85
2023/01/23 02:20:20;;;;;;;76.30;25.80;;;;;;;;;;6189413;23;20009;-85
2023/01/23 02:22:52;;;;;;;48.67;16.42;;;;;;;;;;6190674;23;20447;-87
2023/01/23 02:25:40;;;;;;;63.70;21.80;;;;;;;;;;6186282;23;20005;-86
2023/01/23 02:28:06;;;;;;;72.93;23.95;;;;;;;;;;6184365;23;20005;-86
2023/01/23 02:30:31;;;;;;;75.95;26.83;;;;;;;;;;6185290;23;20192;-86
2023/01/23 02:33:11;;;;;;;57.08;21.17;;;;;;;;;;6187425;23;20092;-86
2023/01/23 02:35:36;;;;;;;70.28;23.58;;;;;;;;;;6208531;23;20023;-82
2023/01/23 02:38:03;;;;;;;87.53;28.10;;;;;;;;;;6165497;23;20037;-87
2023/01/23 02:40:55;;;;;;;91.28;28.10;;;;;;;;;;6203083;23;20032;-86
2023/01/23 02:43:21;;;;;;;79.75;27.67;;;;;;;;;;6195941;23;20499;-87
2023/01/23 02:45:47;;;;;;;86.22;28.17;;;;;;;;;;6167405;23;20036;-85
2023/01/23 02:48:13;;;;;;;82.85;28.27;;;;;;;;;;6184896;23;20071;-87
2023/01/23 02:50:38;;;;;;;63.28;22.45;;;;;;;;;;6183471;23;20001;-86
2023/01/23 02:53:04;;;;;;;91.72;28.85;;;;;;;;;;6184359;23;20005;-85
2023/01/23 02:55:31;;;;;;;79.03;28.77;;;;;;;;;;6184718;23;20012;-85
2023/01/23 03:00:14;;;;;;;85.25;27.98;;;;;;;;;;6184187;23;20411;-87
2023/01/23 03:00:43;;;;;;;75.13;27.65;;;;;;;;;;6193293;23;20009;-85
2023/01/23 03:03:08;;;;;;;74.65;24.73;;;;;;;;;;6194629;23;20332;-86
2023/01/23 03:05:34;;;;;;;62.15;23.70;;;;;;;;;;6204339;23;20005;-84
2023/01/23 03:07:59;;;;;;;69.22;24.05;;;;;;;;;;6200862;23;19997;-84
2023/01/23 03:10:25;;;;;;;65.82;22.42;;;;;;;;;;6189370;23;20008;-85
2023/01/23 03:12:50;;;;;;;64.75;24.95;;;;;;;;;;6210453;23;20016;-84
2023/01/23 03:15:16;;;;;;;80.13;25.70;;;;;;;;;;6182710;23;19993;-81
2023/01/23 03:17:42;;;;;;;82.38;26.90;;;;;;;;;;6209603;23;20005;-84
2023/01/23 03:20:08;;;;;;;77.35;27.35;;;;;;;;;;6199531;23;20020;-84
2023/01/23 03:22:33;;;;;;;75.53;24.33;;;;;;;;;;6209335;23;20035;-86
2023/01/23 03:25:00;;;;;;;67.25;24.15;;;;;;;;;;6197259;23;20001;-85
2023/01/23 03:27:25;;;;;;;62.60;22.83;;;;;;;;;;6182640;23;20110;-85
2023/01/23 03:32:36;;;;;;;67.05;21.52;;;;;;;;;;6184229;23;20069;-86
2023/01/23 03:35:01;;;;;;;90.03;30.90;;;;;;;;;;6183290;23;20004;-86
2023/01/23 03:37:27;;;;;;;87.55;33.95;;;;;;;;;;6184054;23;20005;-86
2023/01/23 03:42:36;;;;;;;75.70;26.70;;;;;;;;;;6185887;23;20025;-86
2023/01/23 03:45:02;;;;;;;65.43;20.27;;;;;;;;;;6183782;23;19996;-86
2023/01/23 03:47:27;;;;;;;68.18;25.48;;;;;;;;;;6182601;23;20084;-87
2023/01/23 03:49:52;;;;;;;87.75;28.60;;;;;;;;;;6184937;23;20001;-87
2023/01/23 03:52:18;;;;;;;74.03;25.73;;;;;;;;;;6184541;23;20005;-87
2023/01/23 03:54:43;;;;;;;91.00;27.15;;;;;;;;;;6184895;23;20028;-86
2023/01/23 03:57:09;;;;;;;69.70;25.65;;;;;;;;;;6184776;23;20009;-85
2023/01/23 03:59:34;;;;;;;76.30;27.17;;;;;;;;;;6191896;23;20005;-86
2023/01/23 04:02:03;;;;;;;85.15;28.33;;;;;;;;;;6188486;23;20005;-86
2023/01/23 04:04:29;;;;;;;84.55;28.40;;;;;;;;;;6186162;23;20071;-85
2023/01/23 04:06:54;;;;;;;95.80;32.25;;;;;;;;;;6184944;23;20013;-85
2023/01/23 04:09:26;;;;;;;88.07;27.70;;;;;;;;;;6186031;23;20395;-84
2023/01/23 04:11:51;;;;;;;97.97;32.15;;;;;;;;;;6186074;23;20024;-85
2023/01/23 04:14:17;;;;;;;86.75;27.48;;;;;;;;;;6159956;23;20336;-86
2023/01/23 04:16:42;;;;;;;97.95;28.45;;;;;;;;;;6186676;23;20059;-86
2023/01/23 04:19:07;;;;;;;90.75;27.75;;;;;;;;;;6192557;23;20001;-84
2023/01/23 04:21:33;;;;;;;84.82;26.27;;;;;;;;;;6166138;23;20448;-86
2023/01/23 04:23:58;;;;;;;75.28;26.27;;;;;;;;;;6159610;23;20080;-86
2023/01/23 04:26:24;;;;;;;82.38;26.00;;;;;;;;;;6186414;23;20013;-85
2023/01/23 04:28:49;;;;;;;52.25;18.50;;;;;;;;;;6193127;23;20014;-85
2023/01/23 04:31:15;;;;;;;90.18;27.92;;;;;;;;;;6187747;23;20368;-85
2023/01/23 04:33:42;;;;;;;77.53;25.17;;;;;;;;;;6192328;23;20001;-86
2023/01/23 04:36:07;;;;;;;88.75;30.08;;;;;;;;;;6190494;23;20001;-85
2023/01/23 04:38:34;;;;;;;73.63;23.00;;;;;;;;;;6187654;23;20484;-84
2023/01/23 04:41:00;;;;;;;76.70;25.80;;;;;;;;;;6191024;23;20096;-86
2023/01/23 04:43:25;;;;;;;62.80;22.85;;;;;;;;;;6185948;23;20337;-85
2023/01/23 04:45:52;;;;;;;65.15;23.45;;;;;;;;;;6185960;23;20012;-84
2023/01/23 04:48:17;;;;;;;65.55;25.02;;;;;;;;;;6188680;23;20012;-85
2023/01/23 04:50:43;;;;;;;65.45;21.02;;;;;;;;;;6186369;23;20001;-87
2023/01/23 04:53:08;;;;;;;73.82;23.38;;;;;;;;;;6187710;23;20424;-85
2023/01/23 04:55:34;;;;;;;80.13;26.60;;;;;;;;;;6185979;23;20483;-84
2023/01/23 04:58:00;;;;;;;45.13;15.75;;;;;;;;;;6190421;23;20005;-81
2023/01/23 05:00:27;;;;;;;63.92;21.27;;;;;;;;;;6188255;23;20386;-83
2023/01/23 05:02:53;;;;;;;65.45;20.63;;;;;;;;;;6187664;23;20036;-81
2023/01/23 05:05:21;;;;;;;48.60;19.05;;;;;;;;;;6187288;23;19997;-83
2023/01/23 05:07:47;;;;;;;60.53;19.85;;;;;;;;;;6186701;23;20005;-86
2023/01/23 05:10:14;;;;;;;52.40;17.40;;;;;;;;;;6191787;23;20001;-84
2023/01/23 05:12:40;;;;;;;51.25;19.50;;;;;;;;;;6185161;23;20009;-87
2023/01/23 05:15:06;;;;;;;51.53;20.48;;;;;;;;;;6194760;23;20001;-84
2023/01/23 05:17:32;;;;;;;45.60;18.10;;;;;;;;;;6185997;23;20451;-86
2023/01/23 05:19:57;;;;;;;53.45;20.00;;;;;;;;;;6183258;23;20051;-86
2023/01/23 05:22:23;;;;;;;50.35;20.30;;;;;;;;;;6183866;23;20012;-87
2023/01/23 05:24:48;;;;;;;53.60;19.65;;;;;;;;;;6183870;23;20001;-84
2023/01/23 05:27:14;;;;;;;47.38;17.73;;;;;;;;;;6185167;23;20058;-85
2023/01/23 05:29:39;;;;;;;48.88;16.63;;;;;;;;;;6183538;23;20356;-85
2023/01/23 05:32:05;;;;;;;46.72;14.80;;;;;;;;;;6185640;23;20336;-85
2023/01/23 05:34:30;;;;;;;37.25;13.35;;;;;;;;;;6183647;23;20035;-88
2023/01/23 05:36:55;;;;;;;36.97;13.95;;;;;;;;;;6188385;23;20008;-85
2023/01/23 05:39:22;;;;;;;44.38;16.77;;;;;;;;;;6160572;23;20029;-83
2023/01/23 05:41:48;;;;;;;42.03;17.02;;;;;;;;;;6186111;23;20016;-84
2023/01/23 05:44:14;;;;;;;54.25;15.60;;;;;;;;;;6181923;23;20016;-84
2023/01/23 05:46:39;;;;;;;35.10;15.57;;;;;;;;;;6182843;23;20005;-84
2023/01/23 05:49:05;;;;;;;34.22;14.23;;;;;;;;;;6185071;23;20001;-85
2023/01/23 05:51:32;;;;;;;32.22;12.88;;;;;;;;;;6182625;23;20001;-81
2023/01/23 05:54:04;;;;;;;38.97;14.25;;;;;;;;;;6184771;23;20086;-86
2023/01/23 05:56:51;;;;;;;43.95;16.55;;;;;;;;;;6165500;23;20060;-84
2023/01/23 05:59:18;;;;;;;36.30;13.15;;;;;;;;;;6185388;23;20001;-86
2023/01/23 06:02:07;;;;;;;37.53;15.85;;;;;;;;;;6196065;23;20012;-82
2023/01/23 06:04:39;;;;;;;32.17;12.60;;;;;;;;;;6180812;23;20009;-85
2023/01/23 06:07:06;;;;;;;25.77;11.82;;;;;;;;;;6189301;23;20366;-80
2023/01/23 06:09:31;;;;;;;40.90;17.65;;;;;;;;;;6185188;23;20084;-83
2023/01/23 06:11:57;;;;;;;35.60;13.10;;;;;;;;;;6184591;23;20348;-85
2023/01/23 06:14:22;;;;;;;42.72;18.48;;;;;;;;;;6187117;23;20012;-84
2023/01/23 06:16:48;;;;;;;32.08;12.27;;;;;;;;;;6189784;23;20005;-84
2023/01/23 06:19:13;;;;;;;34.08;14.27;;;;;;;;;;6183493;23;20005;-84
2023/01/23 06:21:39;;;;;;;30.48;12.85;;;;;;;;;;6189364;23;20001;-84
2023/01/23 06:24:05;;;;;;;37.55;16.60;;;;;;;;;;6183597;23;19997;-82
2023/01/23 06:26:30;;;;;;;40.00;17.83;;;;;;;;;;6181970;23;20080;-86
2023/01/23 06:28:56;;;;;;;39.30;15.65;;;;;;;;;;6179901;23;20377;-83
2023/01/23 06:31:21;;;;;;;36.25;15.75;;;;;;;;;;6182231;23;20012;-83
2023/01/23 06:33:50;;;;;;;27.48;13.27;;;;;;;;;;6184328;23;20005;-84
2023/01/23 06:36:16;;;;;;;40.67;17.00;;;;;;;;;;6193005;23;20008;-86
2023/01/23 06:38:41;;;;;;;34.33;13.85;;;;;;;;;;6189333;23;20005;-87
2023/01/23 06:41:08;;;;;;;40.13;18.38;;;;;;;;;;6185010;23;20001;-86
2023/01/23 06:43:33;;;;;;;33.45;14.65;;;;;;;;;;6183982;23;20037;-86
2023/01/23 06:45:59;;;;;;;39.78;16.25;;;;;;;;;;6187219;23;20008;-86
2023/01/23 06:48:28;;;;;;;36.78;13.05;;;;;;;;;;6196113;23;20009;-86
2023/01/23 06:51:00;;;;;;;34.63;11.88;;;;;;;;;;6185071;23;20106;-87
2023/01/23 06:53:26;;;;;;;33.95;13.05;;;;;;;;;;6186848;23;20005;-87
2023/01/23 06:55:52;;;;;;;28.40;11.85;;;;;;;;;;6187893;23;20452;-83
2023/01/23 06:58:17;;;;;;;35.90;14.90;;;;;;;;;;6157009;23;20131;-83
2023/01/23 07:00:43;;;;;;;42.08;15.95;;;;;;;;;;6184939;23;20001;-81
2023/01/23 07:03:10;;;;;;;43.88;17.92;;;;;;;;;;6161568;23;20031;-87
2023/01/23 07:05:38;;;;;;;35.92;14.35;;;;;;;;;;6167621;23;20010;-86
2023/01/23 07:08:04;;;;;;;27.52;12.15;;;;;;;;;;6194821;23;20016;-85
2023/01/23 07:10:31;;;;;;;35.20;14.60;;;;;;;;;;6162340;23;19997;-85
2023/01/23 07:12:57;;;;;;;32.17;13.65;;;;;;;;;;6188203;23;20511;-88
2023/01/23 07:15:23;;;;;;;31.90;13.57;;;;;;;;;;6166589;23;20001;-86
2023/01/23 07:17:48;;;;;;;34.85;16.45;;;;;;;;;;6202144;23;20085;-88
2023/01/23 07:20:14;;;;;;;34.63;15.18;;;;;;;;;;6174400;23;20016;-87
2023/01/23 07:22:40;;;;;;;37.30;15.88;;;;;;;;;;6203767;23;20012;-83
2023/01/23 07:25:06;;;;;;;36.08;15.27;;;;;;;;;;6199496;23;20040;-83
2023/01/23 07:27:32;;;;;;;36.42;12.90;;;;;;;;;;6203450;23;20009;-85
2023/01/23 07:29:57;;;;;;;35.65;12.68;;;;;;;;;;6201019;23;20116;-86
2023/01/23 07:32:23;;;;;;;30.85;13.90;;;;;;;;;;6180562;23;20058;-84
2023/01/23 07:34:48;;;;;;;35.20;14.68;;;;;;;;;;6205818;23;20072;-86
2023/01/23 07:37:14;;;;;;;36.95;14.80;;;;;;;;;;6200380;23;20052;-88
2023/01/23 07:39:39;;;;;;;29.60;10.48;;;;;;;;;;6198842;23;20045;-86
2023/01/23 07:42:09;;;;;;;27.17;13.00;;;;;;;;;;6194532;23;20018;-86
2023/01/23 07:44:34;;;;;;;17.67;8.02;;;;;;;;;;6188250;23;20005;-85
2023/01/23 07:47:06;;;;;;;32.08;15.30;;;;;;;;;;6185179;23;20493;-88
2023/01/23 07:49:32;;;;;;;36.17;13.75;;;;;;;;;;6187656;23;20009;-81
2023/01/23 07:51:58;;;;;;;40.25;11.23;;;;;;;;;;6193306;23;20001;-86
2023/01/23 07:54:24;;;;;;;24.52;12.27;;;;;;;;;;6197105;23;20000;-89
2023/01/23 07:56:49;;;;;;;39.33;14.65;;;;;;;;;;6202083;23;20027;-87
2023/01/23 07:59:16;;;;;;;33.53;13.15;;;;;;;;;;6188059;23;20483;-88
2023/01/23 08:01:42;;;;;;;39.75;14.98;;;;;;;;;;6187065;23;20360;-89
2023/01/23 08:04:07;;;;;;;36.50;14.20;;;;;;;;;;6181533;23;20008;-84
2023/01/23 08:06:33;;;;;;;32.47;14.07;;;;;;;;;;6182325;23;20012;-85
2023/01/23 08:08:58;;;;;;;30.88;12.98;;;;;;;;;;6182245;23;20060;-81
2023/01/23 08:11:25;;;;;;;40.13;15.18;;;;;;;;;;6191258;23;20005;-84
2023/01/23 08:13:51;;;;;;;26.23;9.75;;;;;;;;;;6186833;23;20005;-87
2023/01/23 08:16:17;;;;;;;36.33;15.93;;;;;;;;;;6189867;23;20005;-85
2023/01/23 08:18:49;;;;;;;26.65;12.15;;;;;;;;;;6164743;23;20012;-83
2023/01/23 08:21:19;;;;;;;32.58;13.95;;;;;;;;;;6202435;23;20020;-80
2023/01/23 08:23:45;;;;;;;40.72;15.00;;;;;;;;;;6186367;23;20012;-88
2023/01/23 08:26:13;;;;;;;40.70;15.10;;;;;;;;;;6189354;23;20013;-89
2023/01/23 08:28:42;;;;;;;33.92;13.38;;;;;;;;;;6192723;23;20005;-89
2023/01/23 08:31:08;;;;;;;25.80;11.75;;;;;;;;;;6185760;23;20010;-84
2023/01/23 08:33:35;;;;;;;34.90;13.80;;;;;;;;;;6187915;23;20001;-85
2023/01/23 08:36:00;;;;;;;34.17;14.52;;;;;;;;;;6145468;23;20020;-87
2023/01/23 08:38:27;;;;;;;37.22;14.30;;;;;;;;;;6194423;23;20425;-88
2023/01/23 08:40:54;;;;;;;38.25;15.25;;;;;;;;;;6182667;23;19997;-87
2023/01/23 08:43:19;;;;;;;27.60;11.98;;;;;;;;;;6155661;23;20009;-87
2023/01/23 08:45:50;;;;;;;35.38;13.30;;;;;;;;;;6158586;23;20067;-87
2023/01/23 08:48:15;;;;;;;27.10;10.82;;;;;;;;;;6157304;23;20531;-89
2023/01/23 08:50:41;;;;;;;45.33;14.73;;;;;;;;;;6134459;23;20005;-89
2023/01/23 08:53:07;;;;;;;35.40;12.88;;;;;;;;;;6182099;23;20441;-88
2023/01/23 08:55:34;;;;;;;34.38;13.35;;;;;;;;;;6190323;23;20009;-87
2023/01/23 08:58:00;;;;;;;36.15;14.40;;;;;;;;;;6133567;23;20005;-86
2023/01/23 09:00:26;;;;;;;39.55;15.07;;;;;;;;;;6183102;23;20001;-87
2023/01/23 09:02:52;;;;;;;26.20;11.18;;;;;;;;;;6161970;23;19997;-87
2023/01/23 09:05:17;;;;;;;20.63;8.88;;;;;;;;;;6156669;23;20005;-83
2023/01/23 09:07:43;;;;;;;36.05;12.60;;;;;;;;;;6185060;23;20005;-88
2023/01/23 09:10:10;;;;;;;33.67;14.35;;;;;;;;;;6134302;23;20051;-91
2023/01/23 09:12:35;;;;;;;33.63;13.43;;;;;;;;;;6187390;23;20514;-88
2023/01/23 09:15:02;;;;;;;33.92;13.02;;;;;;;;;;6187351;23;20016;-87
2023/01/23 09:17:28;;;;;;;37.38;14.60;;;;;;;;;;6185473;23;20029;-82
2023/01/23 09:19:53;;;;;;;35.35;13.95;;;;;;;;;;6181331;23;20294;-83
2023/01/23 09:22:19;;;;;;;32.83;12.35;;;;;;;;;;6183455;23;20317;-82
2023/01/23 09:24:45;;;;;;;43.47;18.15;;;;;;;;;;6186499;23;20016;-82
2023/01/23 09:27:10;;;;;;;37.08;13.65;;;;;;;;;;6188866;23;20028;-86
2023/01/23 09:29:38;;;;;;;37.47;15.63;;;;;;;;;;6193086;23;20060;-88
2023/01/23 09:32:04;;;;;;;34.13;14.38;;;;;;;;;;6188901;23;20013;-82
2023/01/23 09:34:30;;;;;;;41.90;15.70;;;;;;;;;;6194147;23;20070;-86
2023/01/23 09:37:08;;;;;;;37.20;13.85;;;;;;;;;;6192385;23;20005;-83
2023/01/23 09:39:37;;;;;;;32.40;14.07;;;;;;;;;;6194545;23;20100;-85
2023/01/23 09:42:06;;;;;;;29.10;12.03;;;;;;;;;;6189989;23;20005;-86
2023/01/23 09:44:41;;;;;;;34.27;14.20;;;;;;;;;;6187049;23;20220;-85
2023/01/23 09:47:45;;;;;;;36.25;14.48;;;;;;;;;;6186998;23;20252;-82
2023/01/23 09:50:21;;;;;;;38.72;13.55;;;;;;;;;;6181062;23;20016;-85
2023/01/23 09:53:12;;;;;;;28.88;12.85;;;;;;;;;;6184463;23;20021;-83
2023/01/23 09:55:48;;;;;;;35.80;13.05;;;;;;;;;;6159486;23;20013;-85
2023/01/23 09:58:55;;;;;;;41.78;16.15;;;;;;;;;;6131317;23;20015;-86
2023/01/23 10:01:24;;;;;;;33.97;14.02;;;;;;;;;;6092922;23;20014;-84
2023/01/23 10:03:49;;;;;;;42.33;14.65;;;;;;;;;;6071180;23;20338;-86
2023/01/23 10:06:15;;;;;;;34.28;13.13;;;;;;;;;;6117581;23;20013;-85
2023/01/23 10:09:11;;;;;;;36.95;14.40;;;;;;;;;;6182018;23;20031;-83
2023/01/23 10:12:01;;;;;;;36.65;15.10;;;;;;;;;;6186035;23;20475;-83
2023/01/23 10:14:33;;;;;;;40.20;14.30;;;;;;;;;;6186580;23;20009;-83
2023/01/23 10:17:13;;;;;;;30.40;11.02;;;;;;;;;;6191214;23;20009;-85
2023/01/23 10:19:45;;;;;;;;;;;;;;;;;;6186176;23;20024;-87
2023/01/23 10:22:34;;;;;;;38.95;13.52;;;;;;;;;;6196026;23;19908;-87
2023/01/23 10:25:27;;;;;;;39.45;13.82;;;;;;;;;;6202027;23;20004;-87
2023/01/23 10:28:30;;;;;;;31.60;13.50;;;;;;;;;;6202519;23;20000;-87
2023/01/23 10:31:02;;;;;;;37.05;15.18;;;;;;;;;;6085171;23;20668;-84
2023/01/23 10:33:48;;;;;;;36.10;14.07;;;;;;;;;;6119669;23;20033;-86
2023/01/23 10:36:16;;;;;;;29.25;11.60;;;;;;;;;;6128200;23;20016;-86
2023/01/23 10:41:58;;;;;;;32.25;13.10;;;;;;;;;;6135203;23;20140;-82
2023/01/23 10:44:25;;;;;;;36.25;12.98;;;;;;;;;;6153116;23;20009;-82
2023/01/23 10:46:55;;;;;;;37.88;16.10;;;;;;;;;;6124907;23;20013;-84
2023/01/23 10:49:31;;;;;;;22.45;8.68;;;;;;;;;;6125593;23;20028;-85
2023/01/23 10:52:04;;;;;;;23.95;10.48;;;;;;;;;;6154804;23;20006;-83
2023/01/23 10:54:30;;;;;;;35.67;13.70;;;;;;;;;;6128205;23;20084;-82
2023/01/23 10:56:58;;;;;;;33.78;15.20;;;;;;;;;;6108229;23;20017;-86
2023/01/23 10:59:47;;;;;;;38.50;12.63;;;;;;;;;;6162985;23;20117;-86
2023/01/23 11:02:18;;;;;;;31.45;13.63;;;;;;;;;;6118824;23;20005;-87
2023/01/23 11:04:46;;;;;;;36.35;14.93;;;;;;;;;;6136402;23;20009;-86
2023/01/23 11:07:22;;;;;;;32.28;12.90;;;;;;;;;;6158922;23;20020;-87
2023/01/23 11:09:59;;;;;;;33.13;14.18;;;;;;;;;;6132044;23;20001;-83
2023/01/23 11:12:32;;;;;;;26.98;10.18;;;;;;;;;;6109385;23;20013;-86
2023/01/23 11:15:23;;;;;;;26.70;10.93;;;;;;;;;;6132214;23;20016;-84
2023/01/23 11:17:49;;;;;;;29.33;11.02;;;;;;;;;;6136053;23;20029;-84
2023/01/23 11:20:26;;;;;;;28.83;10.93;;;;;;;;;;6159363;23;20013;-81
2023/01/23 11:26:32;;;;;;;33.83;11.77;;;;;;;;;;6150964;23;20024;-83
2023/01/23 11:28:59;;;;;;;31.65;11.80;;;;;;;;;;6159433;23;20499;-87
2023/01/23 11:31:25;;;;;;;32.55;12.90;;;;;;;;;;6135458;23;20085;-86
2023/01/23 11:33:58;;;;;;;29.17;11.13;;;;;;;;;;6188114;23;20009;-86
2023/01/23 11:36:49;;;;;;;34.05;13.13;;;;;;;;;;6188691;23;20036;-86
2023/01/23 11:39:45;;;;;;;30.10;12.00;;;;;;;;;;6167975;23;20009;-91
2023/01/23 11:42:11;;;;;;;24.70;10.57;;;;;;;;;;6186677;23;20232;-91
2023/01/23 11:44:37;;;;;;;36.10;14.70;;;;;;;;;;6184042;23;20060;-88
2023/01/23 11:47:21;;;;;;;33.88;13.85;;;;;;;;;;6140732;23;20100;-90
2023/01/23 11:50:10;;;;;;;23.40;11.05;;;;;;;;;;6187523;23;20001;-87
2023/01/23 11:53:03;;;;;;;36.65;14.48;;;;;;;;;;6186967;23;20096;-90
2023/01/23 11:55:58;;;;;;;30.35;12.82;;;;;;;;;;6182573;23;19997;-90
2023/01/23 11:58:46;;;;;;;35.58;14.18;;;;;;;;;;6193128;23;20013;-88
2023/01/23 12:01:50;;;;;;;29.52;11.48;;;;;;;;;;6177388;23;20008;-89
2023/01/23 12:05:16;;;;;;;24.85;10.45;;;;;;;;;;6203561;23;20036;-85
2023/01/23 12:08:25;;;;;;;26.02;10.15;;;;;;;;;;6197881;23;20020;-86
2023/01/23 12:11:15;;;;;;;27.35;10.45;;;;;;;;;;6161024;23;20012;-88
2023/01/23 12:14:03;;;;;;;29.15;12.00;;;;;;;;;;6132669;23;20001;-87
2023/01/23 12:16:31;;;;;;;24.73;10.50;;;;;;;;;;6189518;23;20009;-90
2023/01/23 12:19:02;;;;;;;36.92;15.48;;;;;;;;;;6190626;23;20031;-90
2023/01/23 12:21:55;;;;;;;41.30;17.00;;;;;;;;;;6189564;23;20009;-87
2023/01/23 12:24:36;;;;;;;32.38;12.88;;;;;;;;;;6184823;23;20051;-86
2023/01/23 12:27:20;;;;;;;26.73;11.40;;;;;;;;;;6182073;23;20017;-89
2023/01/23 12:29:58;;;;;;;28.10;11.63;;;;;;;;;;6184100;23;20001;-85
2023/01/23 12:32:41;;;;;;;30.25;12.02;;;;;;;;;;6184765;23;20049;-87
2023/01/23 12:35:23;;;;;;;31.70;11.63;;;;;;;;;;6190308;23;19997;-87
2023/01/23 12:38:03;;;;;;;29.38;11.98;;;;;;;;;;6183898;23;20009;-88
2023/01/23 12:40:46;;;;;;;26.15;11.40;;;;;;;;;;6181871;23;20055;-91
2023/01/23 12:43:15;;;;;;;33.63;12.25;;;;;;;;;;6185610;23;20001;-86
2023/01/23 12:45:45;;;;;;;37.55;14.90;;;;;;;;;;6185721;23;20083;-91
2023/01/23 12:48:27;;;;;;;34.10;12.33;;;;;;;;;;6164545;23;20057;-88
2023/01/23 12:50:56;;;;;;;28.92;12.25;;;;;;;;;;6169507;23;20306;-90
2023/01/23 12:53:22;;;;;;;35.83;14.57;;;;;;;;;;6209259;23;20005;-86
2023/01/23 12:56:07;;;;;;;31.98;13.48;;;;;;;;;;6209331;23;20015;-86
2023/01/23 12:58:40;;;;;;;27.42;11.75;;;;;;;;;;6182996;23;20071;-88
2023/01/23 13:01:10;;;;;;;34.67;13.65;;;;;;;;;;6177359;23;20214;-88
2023/01/23 13:04:02;;;;;;;24.92;10.23;;;;;;;;;;6196920;23;20036;-89
2023/01/23 13:06:38;;;;;;;32.15;13.52;;;;;;;;;;6191708;23;20012;-88
2023/01/23 13:09:34;;;;;;;30.35;11.73;;;;;;;;;;6191827;23;20016;-90
2023/01/23 13:12:20;;;;;;;29.00;11.45;;;;;;;;;;6166261;23;20092;-92
2023/01/23 13:14:46;;;;;;;30.88;11.77;;;;;;;;;;6202535;23;20015;-83
2023/01/23 13:17:30;;;;;;;39.97;15.90;;;;;;;;;;6146086;23;20009;-85
2023/01/23 13:23:17;;;;;;;33.28;13.55;;;;;;;;;;6187754;23;20024;-91
2023/01/23 13:25:43;;;;;;;30.48;12.20;;;;;;;;;;6190634;23;20001;-87
2023/01/23 13:28:33;;;;;;;30.42;12.05;;;;;;;;;;6164039;23;20013;-91
2023/01/23 13:31:01;;;;;;;33.70;13.52;;;;;;;;;;6163349;23;20374;-87
2023/01/23 13:33:32;;;;;;;26.70;10.60;;;;;;;;;;6160629;23;20015;-89
2023/01/23 13:36:12;;;;;;;30.33;12.77;;;;;;;;;;6197626;23;20005;-89
2023/01/23 13:38:39;;;;;;;30.93;12.03;;;;;;;;;;6184323;23;20005;-87
2023/01/23 13:41:07;;;;;;;31.35;13.98;;;;;;;;;;6185834;23;20009;-89
2023/01/23 13:43:43;;;;;;;38.63;13.02;;;;;;;;;;6183996;23;20412;-86
2023/01/23 13:46:52;;;;;;;26.80;11.43;;;;;;;;;;6184953;23;20147;-87
2023/01/23 13:49:54;;;;;;;31.25;12.45;;;;;;;;;;6162919;23;20421;-86
2023/01/23 13:58:04;;;;;;;33.03;12.73;;;;;;;;;;6192987;23;20019;-89
2023/01/23 14:00:30;;;;;;;39.42;14.82;;;;;;;;;;6153114;23;20001;-91
2023/01/23 14:06:05;;;;;;;39.28;15.73;;;;;;;;;;6189788;23;20016;-91
2023/01/23 14:08:30;;;;;;;35.85;14.77;;;;;;;;;;6187545;23;20425;-92
2023/01/23 14:10:58;;;;;;;39.03;15.10;;;;;;;;;;6186618;23;20016;-92
2023/01/23 14:13:25;;;;;;;34.97;15.45;;;;;;;;;;6190582;23;20080;-87
2023/01/23 14:16:10;;;;;;;27.30;11.20;;;;;;;;;;6180885;23;20036;-88
2023/01/23 14:18:38;;;;;;;28.52;12.07;;;;;;;;;;6168093;23;20007;-88
2023/01/23 14:21:18;;;;;;;26.92;10.55;;;;;;;;;;6164393;23;20063;-90
2023/01/23 14:23:45;;;;;;;26.42;11.23;;;;;;;;;;6162491;23;20345;-87
2023/01/23 14:26:14;;;;;;;35.38;12.23;;;;;;;;;;6164026;23;20625;-91
2023/01/23 14:28:51;;;;;;;28.98;11.93;;;;;;;;;;6174223;23;20005;-88
2023/01/23 14:31:24;;;;;;;25.10;10.63;;;;;;;;;;6190224;23;20005;-88
2023/01/23 14:33:50;;;;;;;15.60;7.55;;;;;;;;;;6198776;23;20043;-90
2023/01/23 14:36:16;;;;;;;30.50;11.52;;;;;;;;;;6177507;23;20005;-87
2023/01/23 14:38:42;;;;;;;25.95;10.57;;;;;;;;;;6187976;23;20004;-91
2023/01/23 14:41:08;;;;;;;26.00;10.75;;;;;;;;;;6164850;23;20012;-87
2023/01/23 14:43:34;;;;;;;26.60;10.82;;;;;;;;;;6161766;23;20005;-93
2023/01/23 14:46:01;;;;;;;24.17;10.02;;;;;;;;;;6187423;23;20370;-90
2023/01/23 14:48:27;;;;;;;24.65;11.80;;;;;;;;;;6186875;23;20001;-90
2023/01/23 14:51:28;;;;;;;18.33;8.27;;;;;;;;;;6187044;23;20024;-90
2023/01/23 14:53:57;;;;;;;25.83;10.57;;;;;;;;;;6046676;23;20007;-91
2023/01/23 14:56:30;;;;;;;25.42;11.98;;;;;;;;;;6170905;23;20017;-88
2023/01/23 14:58:57;;;;;;;23.48;9.25;;;;;;;;;;6162038;23;20024;-87
2023/01/23 15:01:23;;;;;;;28.42;11.80;;;;;;;;;;6186917;23;20005;-90
2023/01/23 15:03:55;;;;;;;29.65;13.32;;;;;;;;;;6183384;23;20056;-90